<?xml version="1.0" encoding="UTF-8" standalone="no" ?>
<gpx xmlns="http://www.topografix.com/GPX/1/1" xmlns:xsi="http://www.w3.org/2001/XMLSchema-instance" xsi:schemaLocation="http://www.topografix.com/GPX/1/1 http://www.topografix.com/GPX/1/1/gpx.xsd" version="1.1" creator="VisuGPX - https://www.visugpx.com">
  <metadata>
    <name>GR20 etape 4</name>
  </metadata>
  <trk>
    <name><![CDATA[GR20 Traversée de la Corse (2020)]]></name>
    <trkseg>
      <trkpt lat="42.40339" lon="8.9223">
        <ele>1431.341</ele>
        <time>2020-03-19T18:09:44Z</time>
      </trkpt>
      <trkpt lat="42.40357" lon="8.92256">
        <ele>1427.715</ele>
        <time>2020-03-19T18:10:04Z</time>
      </trkpt>
      <trkpt lat="42.40364" lon="8.92274">
        <ele>1424.708</ele>
        <time>2020-03-19T18:10:24Z</time>
      </trkpt>
      <trkpt lat="42.40347" lon="8.92278">
        <ele>1424.521</ele>
        <time>2020-03-19T18:10:44Z</time>
      </trkpt>
      <trkpt lat="42.40321" lon="8.92302">
        <ele>1423.784</ele>
        <time>2020-03-19T18:11:04Z</time>
      </trkpt>
      <trkpt lat="42.40323" lon="8.92316">
        <ele>1421.936</ele>
        <time>2020-03-19T18:11:24Z</time>
      </trkpt>
      <trkpt lat="42.40328" lon="8.92331">
        <ele>1419.844</ele>
        <time>2020-03-19T18:11:44Z</time>
      </trkpt>
      <trkpt lat="42.40325" lon="8.92387">
        <ele>1417.718</ele>
        <time>2020-03-19T18:12:04Z</time>
      </trkpt>
      <trkpt lat="42.40319" lon="8.92396">
        <ele>1417.512</ele>
        <time>2020-03-19T18:12:24Z</time>
      </trkpt>
      <trkpt lat="42.40317" lon="8.9241">
        <ele>1416.735</ele>
        <time>2020-03-19T18:12:44Z</time>
      </trkpt>
      <trkpt lat="42.40304" lon="8.92412">
        <ele>1417.331</ele>
        <time>2020-03-19T18:13:04Z</time>
      </trkpt>
      <trkpt lat="42.40294" lon="8.92404">
        <ele>1418.163</ele>
        <time>2020-03-19T18:13:24Z</time>
      </trkpt>
      <trkpt lat="42.40282" lon="8.92401">
        <ele>1418.744</ele>
        <time>2020-03-19T18:13:44Z</time>
      </trkpt>
      <trkpt lat="42.40259" lon="8.9237">
        <ele>1423.618</ele>
        <time>2020-03-19T18:14:04Z</time>
      </trkpt>
      <trkpt lat="42.40236" lon="8.92354">
        <ele>1425.508</ele>
        <time>2020-03-19T18:14:24Z</time>
      </trkpt>
      <trkpt lat="42.4022" lon="8.92333">
        <ele>1432.58</ele>
        <time>2020-03-19T18:14:44Z</time>
      </trkpt>
      <trkpt lat="42.40215" lon="8.92331">
        <ele>1432.613</ele>
        <time>2020-03-19T18:15:04Z</time>
      </trkpt>
      <trkpt lat="42.402" lon="8.92312">
        <ele>1437.465</ele>
        <time>2020-03-19T18:15:24Z</time>
      </trkpt>
      <trkpt lat="42.4019" lon="8.92308">
        <ele>1437.263</ele>
        <time>2020-03-19T18:15:44Z</time>
      </trkpt>
      <trkpt lat="42.40178" lon="8.92296">
        <ele>1440.027</ele>
        <time>2020-03-19T18:16:04Z</time>
      </trkpt>
      <trkpt lat="42.40168" lon="8.92289">
        <ele>1442.471</ele>
        <time>2020-03-19T18:16:24Z</time>
      </trkpt>
      <trkpt lat="42.40159" lon="8.92289">
        <ele>1441.224</ele>
        <time>2020-03-19T18:16:44Z</time>
      </trkpt>
      <trkpt lat="42.40148" lon="8.92282">
        <ele>1443.13</ele>
        <time>2020-03-19T18:17:04Z</time>
      </trkpt>
      <trkpt lat="42.40125" lon="8.92283">
        <ele>1439.377</ele>
        <time>2020-03-19T18:17:24Z</time>
      </trkpt>
      <trkpt lat="42.40078" lon="8.92253">
        <ele>1442.461</ele>
        <time>2020-03-19T18:17:44Z</time>
      </trkpt>
      <trkpt lat="42.40062" lon="8.92248">
        <ele>1441.027</ele>
        <time>2020-03-19T18:18:04Z</time>
      </trkpt>
      <trkpt lat="42.40048" lon="8.92236">
        <ele>1441.908</ele>
        <time>2020-03-19T18:18:24Z</time>
      </trkpt>
      <trkpt lat="42.40022" lon="8.92239">
        <ele>1433.291</ele>
        <time>2020-03-19T18:18:44Z</time>
      </trkpt>
      <trkpt lat="42.40019" lon="8.92229">
        <ele>1436.994</ele>
        <time>2020-03-19T18:19:04Z</time>
      </trkpt>
      <trkpt lat="42.40005" lon="8.9222">
        <ele>1438.196</ele>
        <time>2020-03-19T18:19:24Z</time>
      </trkpt>
      <trkpt lat="42.39997" lon="8.92223">
        <ele>1435.094</ele>
        <time>2020-03-19T18:19:44Z</time>
      </trkpt>
      <trkpt lat="42.39979" lon="8.92218">
        <ele>1432.138</ele>
        <time>2020-03-19T18:20:04Z</time>
      </trkpt>
      <trkpt lat="42.39966" lon="8.92218">
        <ele>1428.542</ele>
        <time>2020-03-19T18:20:24Z</time>
      </trkpt>
      <trkpt lat="42.39945" lon="8.92203">
        <ele>1430.325</ele>
        <time>2020-03-19T18:20:44Z</time>
      </trkpt>
      <trkpt lat="42.39931" lon="8.92199">
        <ele>1428.731</ele>
        <time>2020-03-19T18:21:04Z</time>
      </trkpt>
      <trkpt lat="42.3992" lon="8.92208">
        <ele>1422.779</ele>
        <time>2020-03-19T18:21:24Z</time>
      </trkpt>
      <trkpt lat="42.39901" lon="8.92194">
        <ele>1425.505</ele>
        <time>2020-03-19T18:21:44Z</time>
      </trkpt>
      <trkpt lat="42.39877" lon="8.92192">
        <ele>1423.225</ele>
        <time>2020-03-19T18:22:04Z</time>
      </trkpt>
      <trkpt lat="42.39874" lon="8.92179">
        <ele>1428.408</ele>
        <time>2020-03-19T18:22:24Z</time>
      </trkpt>
      <trkpt lat="42.39863" lon="8.92176">
        <ele>1428.191</ele>
        <time>2020-03-19T18:22:44Z</time>
      </trkpt>
      <trkpt lat="42.39852" lon="8.92171">
        <ele>1429.564</ele>
        <time>2020-03-19T18:23:04Z</time>
      </trkpt>
      <trkpt lat="42.39842" lon="8.92173">
        <ele>1428.356</ele>
        <time>2020-03-19T18:23:24Z</time>
      </trkpt>
      <trkpt lat="42.39833" lon="8.92165">
        <ele>1430.814</ele>
        <time>2020-03-19T18:23:44Z</time>
      </trkpt>
      <trkpt lat="42.39818" lon="8.92165">
        <ele>1432.338</ele>
        <time>2020-03-19T18:24:04Z</time>
      </trkpt>
      <trkpt lat="42.39814" lon="8.92159">
        <ele>1434.942</ele>
        <time>2020-03-19T18:24:24Z</time>
      </trkpt>
      <trkpt lat="42.39797" lon="8.92155">
        <ele>1436.515</ele>
        <time>2020-03-19T18:24:44Z</time>
      </trkpt>
      <trkpt lat="42.39774" lon="8.92157">
        <ele>1434.741</ele>
        <time>2020-03-19T18:25:04Z</time>
      </trkpt>
      <trkpt lat="42.3976" lon="8.92148">
        <ele>1435.552</ele>
        <time>2020-03-19T18:25:24Z</time>
      </trkpt>
      <trkpt lat="42.39736" lon="8.92154">
        <ele>1430.653</ele>
        <time>2020-03-19T18:25:44Z</time>
      </trkpt>
      <trkpt lat="42.39722" lon="8.92151">
        <ele>1430.308</ele>
        <time>2020-03-19T18:26:04Z</time>
      </trkpt>
      <trkpt lat="42.39718" lon="8.92159">
        <ele>1427.908</ele>
        <time>2020-03-19T18:26:24Z</time>
      </trkpt>
      <trkpt lat="42.39704" lon="8.92162">
        <ele>1428.539</ele>
        <time>2020-03-19T18:26:44Z</time>
      </trkpt>
      <trkpt lat="42.39693" lon="8.9216">
        <ele>1430.682</ele>
        <time>2020-03-19T18:27:04Z</time>
      </trkpt>
      <trkpt lat="42.39676" lon="8.92173">
        <ele>1429.164</ele>
        <time>2020-03-19T18:27:24Z</time>
      </trkpt>
      <trkpt lat="42.39638" lon="8.92179">
        <ele>1427.412</ele>
        <time>2020-03-19T18:27:44Z</time>
      </trkpt>
      <trkpt lat="42.39571" lon="8.92215">
        <ele>1431.676</ele>
        <time>2020-03-19T18:28:04Z</time>
      </trkpt>
      <trkpt lat="42.39535" lon="8.92242">
        <ele>1431.56</ele>
        <time>2020-03-19T18:28:24Z</time>
      </trkpt>
      <trkpt lat="42.3953" lon="8.92251">
        <ele>1429.343</ele>
        <time>2020-03-19T18:28:44Z</time>
      </trkpt>
      <trkpt lat="42.39503" lon="8.92259">
        <ele>1431.389</ele>
        <time>2020-03-19T18:29:04Z</time>
      </trkpt>
      <trkpt lat="42.39486" lon="8.92275">
        <ele>1429.241</ele>
        <time>2020-03-19T18:29:24Z</time>
      </trkpt>
      <trkpt lat="42.39469" lon="8.92273">
        <ele>1431.781</ele>
        <time>2020-03-19T18:29:44Z</time>
      </trkpt>
      <trkpt lat="42.39452" lon="8.9229">
        <ele>1430.409</ele>
        <time>2020-03-19T18:30:04Z</time>
      </trkpt>
      <trkpt lat="42.39441" lon="8.9227">
        <ele>1435.908</ele>
        <time>2020-03-19T18:30:24Z</time>
      </trkpt>
      <trkpt lat="42.39416" lon="8.92266">
        <ele>1439.858</ele>
        <time>2020-03-19T18:30:44Z</time>
      </trkpt>
      <trkpt lat="42.3941" lon="8.92257">
        <ele>1441.991</ele>
        <time>2020-03-19T18:31:04Z</time>
      </trkpt>
      <trkpt lat="42.39386" lon="8.92253">
        <ele>1445.323</ele>
        <time>2020-03-19T18:31:24Z</time>
      </trkpt>
      <trkpt lat="42.39375" lon="8.92256">
        <ele>1447.011</ele>
        <time>2020-03-19T18:31:44Z</time>
      </trkpt>
      <trkpt lat="42.39357" lon="8.92251">
        <ele>1450.685</ele>
        <time>2020-03-19T18:32:04Z</time>
      </trkpt>
      <trkpt lat="42.39341" lon="8.92265">
        <ele>1451.359</ele>
        <time>2020-03-19T18:32:24Z</time>
      </trkpt>
      <trkpt lat="42.39328" lon="8.9227">
        <ele>1452.852</ele>
        <time>2020-03-19T18:32:44Z</time>
      </trkpt>
      <trkpt lat="42.393" lon="8.92293">
        <ele>1452.118</ele>
        <time>2020-03-19T18:33:04Z</time>
      </trkpt>
      <trkpt lat="42.39288" lon="8.92294">
        <ele>1452.894</ele>
        <time>2020-03-19T18:33:24Z</time>
      </trkpt>
      <trkpt lat="42.39272" lon="8.92305">
        <ele>1452.757</ele>
        <time>2020-03-19T18:33:44Z</time>
      </trkpt>
      <trkpt lat="42.39264" lon="8.92322">
        <ele>1452.722</ele>
        <time>2020-03-19T18:34:04Z</time>
      </trkpt>
      <trkpt lat="42.39251" lon="8.92321">
        <ele>1455.608</ele>
        <time>2020-03-19T18:34:24Z</time>
      </trkpt>
      <trkpt lat="42.39244" lon="8.92325">
        <ele>1457.433</ele>
        <time>2020-03-19T18:34:44Z</time>
      </trkpt>
      <trkpt lat="42.39234" lon="8.92297">
        <ele>1465.046</ele>
        <time>2020-03-19T18:35:04Z</time>
      </trkpt>
      <trkpt lat="42.39219" lon="8.92307">
        <ele>1467.658</ele>
        <time>2020-03-19T18:35:24Z</time>
      </trkpt>
      <trkpt lat="42.39209" lon="8.92306">
        <ele>1470.316</ele>
        <time>2020-03-19T18:35:44Z</time>
      </trkpt>
      <trkpt lat="42.39197" lon="8.92316">
        <ele>1471.88</ele>
        <time>2020-03-19T18:36:04Z</time>
      </trkpt>
      <trkpt lat="42.39187" lon="8.92311">
        <ele>1473.814</ele>
        <time>2020-03-19T18:36:24Z</time>
      </trkpt>
      <trkpt lat="42.39174" lon="8.9232">
        <ele>1474.147</ele>
        <time>2020-03-19T18:36:44Z</time>
      </trkpt>
      <trkpt lat="42.39157" lon="8.92342">
        <ele>1476.993</ele>
        <time>2020-03-19T18:37:04Z</time>
      </trkpt>
      <trkpt lat="42.39136" lon="8.92327">
        <ele>1484.479</ele>
        <time>2020-03-19T18:37:24Z</time>
      </trkpt>
      <trkpt lat="42.39123" lon="8.92336">
        <ele>1487.205</ele>
        <time>2020-03-19T18:37:44Z</time>
      </trkpt>
      <trkpt lat="42.39107" lon="8.92323">
        <ele>1493.325</ele>
        <time>2020-03-19T18:38:04Z</time>
      </trkpt>
      <trkpt lat="42.3907" lon="8.92327">
        <ele>1504.408</ele>
        <time>2020-03-19T18:38:24Z</time>
      </trkpt>
      <trkpt lat="42.39072" lon="8.92361">
        <ele>1501.331</ele>
        <time>2020-03-19T18:38:44Z</time>
      </trkpt>
      <trkpt lat="42.39063" lon="8.92373">
        <ele>1505.834</ele>
        <time>2020-03-19T18:39:04Z</time>
      </trkpt>
      <trkpt lat="42.39032" lon="8.9239">
        <ele>1514.336</ele>
        <time>2020-03-19T18:39:24Z</time>
      </trkpt>
      <trkpt lat="42.3902" lon="8.92392">
        <ele>1517.144</ele>
        <time>2020-03-19T18:39:44Z</time>
      </trkpt>
      <trkpt lat="42.39019" lon="8.92415">
        <ele>1521.548</ele>
        <time>2020-03-19T18:40:04Z</time>
      </trkpt>
      <trkpt lat="42.39007" lon="8.92423">
        <ele>1526.352</ele>
        <time>2020-03-19T18:40:24Z</time>
      </trkpt>
      <trkpt lat="42.38998" lon="8.92446">
        <ele>1535.085</ele>
        <time>2020-03-19T18:40:44Z</time>
      </trkpt>
      <trkpt lat="42.38986" lon="8.92457">
        <ele>1541.081</ele>
        <time>2020-03-19T18:41:04Z</time>
      </trkpt>
      <trkpt lat="42.38994" lon="8.92468">
        <ele>1543.168</ele>
        <time>2020-03-19T18:41:24Z</time>
      </trkpt>
      <trkpt lat="42.3901" lon="8.92471">
        <ele>1541.042</ele>
        <time>2020-03-19T18:41:44Z</time>
      </trkpt>
      <trkpt lat="42.38995" lon="8.92482">
        <ele>1548.726</ele>
        <time>2020-03-19T18:42:04Z</time>
      </trkpt>
      <trkpt lat="42.38987" lon="8.92501">
        <ele>1559.008</ele>
        <time>2020-03-19T18:42:24Z</time>
      </trkpt>
      <trkpt lat="42.38953" lon="8.9251">
        <ele>1565.87</ele>
        <time>2020-03-19T18:42:44Z</time>
      </trkpt>
      <trkpt lat="42.38957" lon="8.92518">
        <ele>1568.723</ele>
        <time>2020-03-19T18:43:04Z</time>
      </trkpt>
      <trkpt lat="42.38933" lon="8.92522">
        <ele>1576.955</ele>
        <time>2020-03-19T18:43:24Z</time>
      </trkpt>
      <trkpt lat="42.38925" lon="8.92529">
        <ele>1584.493</ele>
        <time>2020-03-19T18:43:44Z</time>
      </trkpt>
      <trkpt lat="42.38912" lon="8.92528">
        <ele>1589.817</ele>
        <time>2020-03-19T18:44:04Z</time>
      </trkpt>
      <trkpt lat="42.38905" lon="8.92531">
        <ele>1592.831</ele>
        <time>2020-03-19T18:44:24Z</time>
      </trkpt>
      <trkpt lat="42.38873" lon="8.92531">
        <ele>1602.864</ele>
        <time>2020-03-19T18:44:44Z</time>
      </trkpt>
      <trkpt lat="42.38866" lon="8.92542">
        <ele>1609.09</ele>
        <time>2020-03-19T18:45:04Z</time>
      </trkpt>
      <trkpt lat="42.38858" lon="8.9254">
        <ele>1610.838</ele>
        <time>2020-03-19T18:45:24Z</time>
      </trkpt>
      <trkpt lat="42.38841" lon="8.92541">
        <ele>1617.97</ele>
        <time>2020-03-19T18:45:44Z</time>
      </trkpt>
      <trkpt lat="42.38828" lon="8.92559">
        <ele>1637.417</ele>
        <time>2020-03-19T18:46:04Z</time>
      </trkpt>
      <trkpt lat="42.38818" lon="8.92559">
        <ele>1639.308</ele>
        <time>2020-03-19T18:46:24Z</time>
      </trkpt>
      <trkpt lat="42.38817" lon="8.92565">
        <ele>1642.187</ele>
        <time>2020-03-19T18:46:44Z</time>
      </trkpt>
      <trkpt lat="42.38803" lon="8.92566">
        <ele>1644.88</ele>
        <time>2020-03-19T18:47:04Z</time>
      </trkpt>
      <trkpt lat="42.38798" lon="8.92581">
        <ele>1652.622</ele>
        <time>2020-03-19T18:47:24Z</time>
      </trkpt>
      <trkpt lat="42.38802" lon="8.9259">
        <ele>1655.95</ele>
        <time>2020-03-19T18:47:44Z</time>
      </trkpt>
      <trkpt lat="42.38777" lon="8.92624">
        <ele>1668.574</ele>
        <time>2020-03-19T18:48:04Z</time>
      </trkpt>
      <trkpt lat="42.38789" lon="8.92637">
        <ele>1674.488</ele>
        <time>2020-03-19T18:48:24Z</time>
      </trkpt>
      <trkpt lat="42.38802" lon="8.9264">
        <ele>1677.021</ele>
        <time>2020-03-19T18:48:44Z</time>
      </trkpt>
      <trkpt lat="42.3883" lon="8.92669">
        <ele>1691.947</ele>
        <time>2020-03-19T18:49:04Z</time>
      </trkpt>
      <trkpt lat="42.38824" lon="8.92677">
        <ele>1697.081</ele>
        <time>2020-03-19T18:49:24Z</time>
      </trkpt>
      <trkpt lat="42.3881" lon="8.92678">
        <ele>1696.661</ele>
        <time>2020-03-19T18:49:44Z</time>
      </trkpt>
      <trkpt lat="42.38807" lon="8.92692">
        <ele>1705.017</ele>
        <time>2020-03-19T18:50:04Z</time>
      </trkpt>
      <trkpt lat="42.3879" lon="8.92699">
        <ele>1701.108</ele>
        <time>2020-03-19T18:50:24Z</time>
      </trkpt>
      <trkpt lat="42.38802" lon="8.92704">
        <ele>1708.842</ele>
        <time>2020-03-19T18:50:44Z</time>
      </trkpt>
      <trkpt lat="42.38813" lon="8.92715">
        <ele>1717.675</ele>
        <time>2020-03-19T18:51:04Z</time>
      </trkpt>
      <trkpt lat="42.38803" lon="8.92735">
        <ele>1724.997</ele>
        <time>2020-03-19T18:51:24Z</time>
      </trkpt>
      <trkpt lat="42.3881" lon="8.92754">
        <ele>1734.885</ele>
        <time>2020-03-19T18:51:44Z</time>
      </trkpt>
      <trkpt lat="42.38816" lon="8.92759">
        <ele>1738.169</ele>
        <time>2020-03-19T18:52:04Z</time>
      </trkpt>
      <trkpt lat="42.38812" lon="8.92774">
        <ele>1741.853</ele>
        <time>2020-03-19T18:52:24Z</time>
      </trkpt>
      <trkpt lat="42.38816" lon="8.92792">
        <ele>1747.926</ele>
        <time>2020-03-19T18:52:44Z</time>
      </trkpt>
      <trkpt lat="42.38826" lon="8.92798">
        <ele>1753.922</ele>
        <time>2020-03-19T18:53:04Z</time>
      </trkpt>
      <trkpt lat="42.38826" lon="8.92805">
        <ele>1755.978</ele>
        <time>2020-03-19T18:53:24Z</time>
      </trkpt>
      <trkpt lat="42.38811" lon="8.92818">
        <ele>1752.533</ele>
        <time>2020-03-19T18:53:44Z</time>
      </trkpt>
      <trkpt lat="42.38818" lon="8.92829">
        <ele>1761.926</ele>
        <time>2020-03-19T18:54:04Z</time>
      </trkpt>
      <trkpt lat="42.38816" lon="8.92835">
        <ele>1763.308</ele>
        <time>2020-03-19T18:54:24Z</time>
      </trkpt>
      <trkpt lat="42.38823" lon="8.92845">
        <ele>1775.261</ele>
        <time>2020-03-19T18:54:44Z</time>
      </trkpt>
      <trkpt lat="42.38818" lon="8.92861">
        <ele>1779.214</ele>
        <time>2020-03-19T18:55:04Z</time>
      </trkpt>
      <trkpt lat="42.38819" lon="8.92884">
        <ele>1787.666</ele>
        <time>2020-03-19T18:55:24Z</time>
      </trkpt>
      <trkpt lat="42.38836" lon="8.92874">
        <ele>1793.054</ele>
        <time>2020-03-19T18:55:44Z</time>
      </trkpt>
      <trkpt lat="42.38836" lon="8.92887">
        <ele>1794.228</ele>
        <time>2020-03-19T18:56:04Z</time>
      </trkpt>
      <trkpt lat="42.3884" lon="8.92894">
        <ele>1794.022</ele>
        <time>2020-03-19T18:56:24Z</time>
      </trkpt>
      <trkpt lat="42.38835" lon="8.92906">
        <ele>1796.165</ele>
        <time>2020-03-19T18:56:44Z</time>
      </trkpt>
      <trkpt lat="42.38847" lon="8.92919">
        <ele>1798.811</ele>
        <time>2020-03-19T18:57:04Z</time>
      </trkpt>
      <trkpt lat="42.38842" lon="8.92959">
        <ele>1820.031</ele>
        <time>2020-03-19T18:57:24Z</time>
      </trkpt>
      <trkpt lat="42.38844" lon="8.92987">
        <ele>1841.261</ele>
        <time>2020-03-19T18:57:44Z</time>
      </trkpt>
      <trkpt lat="42.38842" lon="8.93">
        <ele>1849.907</ele>
        <time>2020-03-19T18:58:04Z</time>
      </trkpt>
      <trkpt lat="42.38843" lon="8.93012">
        <ele>1857.708</ele>
        <time>2020-03-19T18:58:24Z</time>
      </trkpt>
      <trkpt lat="42.38838" lon="8.93025">
        <ele>1862.017</ele>
        <time>2020-03-19T18:58:44Z</time>
      </trkpt>
      <trkpt lat="42.38834" lon="8.93062">
        <ele>1873.45</ele>
        <time>2020-03-19T18:59:04Z</time>
      </trkpt>
      <trkpt lat="42.3884" lon="8.93066">
        <ele>1876.272</ele>
        <time>2020-03-19T18:59:24Z</time>
      </trkpt>
      <trkpt lat="42.38857" lon="8.93116">
        <ele>1892.26</ele>
        <time>2020-03-19T18:59:44Z</time>
      </trkpt>
      <trkpt lat="42.38837" lon="8.93134">
        <ele>1882.944</ele>
        <time>2020-03-19T19:00:04Z</time>
      </trkpt>
      <trkpt lat="42.38835" lon="8.93166">
        <ele>1897.628</ele>
        <time>2020-03-19T19:00:24Z</time>
      </trkpt>
      <trkpt lat="42.38826" lon="8.93176">
        <ele>1893.061</ele>
        <time>2020-03-19T19:00:44Z</time>
      </trkpt>
      <trkpt lat="42.38824" lon="8.93194">
        <ele>1895.767</ele>
        <time>2020-03-19T19:01:04Z</time>
      </trkpt>
      <trkpt lat="42.38815" lon="8.93202">
        <ele>1893.286</ele>
        <time>2020-03-19T19:01:24Z</time>
      </trkpt>
      <trkpt lat="42.38812" lon="8.9322">
        <ele>1896.76</ele>
        <time>2020-03-19T19:01:44Z</time>
      </trkpt>
      <trkpt lat="42.388" lon="8.93253">
        <ele>1903.226</ele>
        <time>2020-03-19T19:02:04Z</time>
      </trkpt>
      <trkpt lat="42.38797" lon="8.93267">
        <ele>1909.308</ele>
        <time>2020-03-19T19:02:24Z</time>
      </trkpt>
      <trkpt lat="42.38789" lon="8.93282">
        <ele>1913.862</ele>
        <time>2020-03-19T19:02:44Z</time>
      </trkpt>
      <trkpt lat="42.38786" lon="8.9332">
        <ele>1930.175</ele>
        <time>2020-03-19T19:03:04Z</time>
      </trkpt>
      <trkpt lat="42.38764" lon="8.93372">
        <ele>1941.367</ele>
        <time>2020-03-19T19:03:24Z</time>
      </trkpt>
      <trkpt lat="42.38769" lon="8.93398">
        <ele>1951.915</ele>
        <time>2020-03-19T19:03:44Z</time>
      </trkpt>
      <trkpt lat="42.3876" lon="8.93419">
        <ele>1952.199</ele>
        <time>2020-03-19T19:04:04Z</time>
      </trkpt>
      <trkpt lat="42.38763" lon="8.93426">
        <ele>1955.813</ele>
        <time>2020-03-19T19:04:24Z</time>
      </trkpt>
      <trkpt lat="42.3876" lon="8.93443">
        <ele>1957.346</ele>
        <time>2020-03-19T19:04:44Z</time>
      </trkpt>
      <trkpt lat="42.38761" lon="8.93454">
        <ele>1968.312</ele>
        <time>2020-03-19T19:05:04Z</time>
      </trkpt>
      <trkpt lat="42.38741" lon="8.93494">
        <ele>1983.347</ele>
        <time>2020-03-19T19:05:24Z</time>
      </trkpt>
      <trkpt lat="42.38742" lon="8.93503">
        <ele>1989.329</ele>
        <time>2020-03-19T19:05:44Z</time>
      </trkpt>
      <trkpt lat="42.38731" lon="8.93521">
        <ele>1989.321</ele>
        <time>2020-03-19T19:06:04Z</time>
      </trkpt>
      <trkpt lat="42.38711" lon="8.93536">
        <ele>1988.808</ele>
        <time>2020-03-19T19:06:24Z</time>
      </trkpt>
      <trkpt lat="42.38712" lon="8.93547">
        <ele>1995.488</ele>
        <time>2020-03-19T19:06:44Z</time>
      </trkpt>
      <trkpt lat="42.38695" lon="8.93552">
        <ele>1998.971</ele>
        <time>2020-03-19T19:07:04Z</time>
      </trkpt>
      <trkpt lat="42.38694" lon="8.93567">
        <ele>2011.043</ele>
        <time>2020-03-19T19:07:24Z</time>
      </trkpt>
      <trkpt lat="42.38698" lon="8.93579">
        <ele>2020.161</ele>
        <time>2020-03-19T19:07:44Z</time>
      </trkpt>
      <trkpt lat="42.38691" lon="8.93585">
        <ele>2024.385</ele>
        <time>2020-03-19T19:08:04Z</time>
      </trkpt>
      <trkpt lat="42.38679" lon="8.93595">
        <ele>2025.859</ele>
        <time>2020-03-19T19:08:24Z</time>
      </trkpt>
      <trkpt lat="42.38665" lon="8.93623">
        <ele>2031.182</ele>
        <time>2020-03-19T19:08:44Z</time>
      </trkpt>
      <trkpt lat="42.38662" lon="8.93638">
        <ele>2034.848</ele>
        <time>2020-03-19T19:09:04Z</time>
      </trkpt>
      <trkpt lat="42.38652" lon="8.93645">
        <ele>2037.939</ele>
        <time>2020-03-19T19:09:24Z</time>
      </trkpt>
      <trkpt lat="42.38654" lon="8.93659">
        <ele>2045.101</ele>
        <time>2020-03-19T19:09:44Z</time>
      </trkpt>
      <trkpt lat="42.38644" lon="8.93668">
        <ele>2045.721</ele>
        <time>2020-03-19T19:10:04Z</time>
      </trkpt>
      <trkpt lat="42.38628" lon="8.93711">
        <ele>2060.908</ele>
        <time>2020-03-19T19:10:24Z</time>
      </trkpt>
      <trkpt lat="42.38629" lon="8.93725">
        <ele>2069.897</ele>
        <time>2020-03-19T19:10:44Z</time>
      </trkpt>
      <trkpt lat="42.38623" lon="8.93729">
        <ele>2070.95</ele>
        <time>2020-03-19T19:11:04Z</time>
      </trkpt>
      <trkpt lat="42.38625" lon="8.93737">
        <ele>2080.052</ele>
        <time>2020-03-19T19:11:24Z</time>
      </trkpt>
      <trkpt lat="42.38607" lon="8.93778">
        <ele>2107.51</ele>
        <time>2020-03-19T19:11:44Z</time>
      </trkpt>
      <trkpt lat="42.38583" lon="8.93781">
        <ele>2099.654</ele>
        <time>2020-03-19T19:12:04Z</time>
      </trkpt>
      <trkpt lat="42.3858" lon="8.93795">
        <ele>2106.458</ele>
        <time>2020-03-19T19:12:24Z</time>
      </trkpt>
      <trkpt lat="42.38574" lon="8.93799">
        <ele>2108.861</ele>
        <time>2020-03-19T19:12:44Z</time>
      </trkpt>
      <trkpt lat="42.38567" lon="8.93815">
        <ele>2118.117</ele>
        <time>2020-03-19T19:13:04Z</time>
      </trkpt>
      <trkpt lat="42.38551" lon="8.93814">
        <ele>2117.146</ele>
        <time>2020-03-19T19:13:24Z</time>
      </trkpt>
      <trkpt lat="42.3854" lon="8.93826">
        <ele>2121.088</ele>
        <time>2020-03-19T19:13:44Z</time>
      </trkpt>
      <trkpt lat="42.38531" lon="8.93826">
        <ele>2120.516</ele>
        <time>2020-03-19T19:14:04Z</time>
      </trkpt>
      <trkpt lat="42.38524" lon="8.93831">
        <ele>2120.808</ele>
        <time>2020-03-19T19:14:24Z</time>
      </trkpt>
      <trkpt lat="42.38511" lon="8.93835">
        <ele>2120.058</ele>
        <time>2020-03-19T19:14:44Z</time>
      </trkpt>
      <trkpt lat="42.38495" lon="8.93855">
        <ele>2124.921</ele>
        <time>2020-03-19T19:15:04Z</time>
      </trkpt>
      <trkpt lat="42.38486" lon="8.93858">
        <ele>2125.683</ele>
        <time>2020-03-19T19:15:24Z</time>
      </trkpt>
      <trkpt lat="42.38485" lon="8.93881">
        <ele>2130.371</ele>
        <time>2020-03-19T19:15:44Z</time>
      </trkpt>
      <trkpt lat="42.38435" lon="8.93917">
        <ele>2134.085</ele>
        <time>2020-03-19T19:16:04Z</time>
      </trkpt>
      <trkpt lat="42.38424" lon="8.93914">
        <ele>2135.939</ele>
        <time>2020-03-19T19:16:24Z</time>
      </trkpt>
      <trkpt lat="42.38416" lon="8.93928">
        <ele>2140.382</ele>
        <time>2020-03-19T19:16:44Z</time>
      </trkpt>
      <trkpt lat="42.38389" lon="8.93933">
        <ele>2148.998</ele>
        <time>2020-03-19T19:17:04Z</time>
      </trkpt>
      <trkpt lat="42.3838" lon="8.93951">
        <ele>2154.434</ele>
        <time>2020-03-19T19:17:24Z</time>
      </trkpt>
      <trkpt lat="42.38371" lon="8.93953">
        <ele>2157.555</ele>
        <time>2020-03-19T19:17:44Z</time>
      </trkpt>
      <trkpt lat="42.38364" lon="8.93962">
        <ele>2162.01</ele>
        <time>2020-03-19T19:18:04Z</time>
      </trkpt>
      <trkpt lat="42.38358" lon="8.93954">
        <ele>2162.308</ele>
        <time>2020-03-19T19:18:24Z</time>
      </trkpt>
      <trkpt lat="42.38351" lon="8.93956">
        <ele>2166.927</ele>
        <time>2020-03-19T19:18:44Z</time>
      </trkpt>
      <trkpt lat="42.38348" lon="8.93967">
        <ele>2171.51</ele>
        <time>2020-03-19T19:19:04Z</time>
      </trkpt>
      <trkpt lat="42.38336" lon="8.93963">
        <ele>2177.422</ele>
        <time>2020-03-19T19:19:24Z</time>
      </trkpt>
      <trkpt lat="42.3832" lon="8.93961">
        <ele>2183.32</ele>
        <time>2020-03-19T19:19:44Z</time>
      </trkpt>
      <trkpt lat="42.38322" lon="8.93973">
        <ele>2186.494</ele>
        <time>2020-03-19T19:20:04Z</time>
      </trkpt>
      <trkpt lat="42.38313" lon="8.93979">
        <ele>2191.438</ele>
        <time>2020-03-19T19:20:24Z</time>
      </trkpt>
      <trkpt lat="42.38313" lon="8.94">
        <ele>2198.161</ele>
        <time>2020-03-19T19:20:44Z</time>
      </trkpt>
      <trkpt lat="42.38299" lon="8.94002">
        <ele>2204.567</ele>
        <time>2020-03-19T19:21:04Z</time>
      </trkpt>
      <trkpt lat="42.38297" lon="8.94011">
        <ele>2208.274</ele>
        <time>2020-03-19T19:21:24Z</time>
      </trkpt>
      <trkpt lat="42.38287" lon="8.94009">
        <ele>2211.256</ele>
        <time>2020-03-19T19:21:44Z</time>
      </trkpt>
      <trkpt lat="42.38286" lon="8.94024">
        <ele>2217.621</ele>
        <time>2020-03-19T19:22:04Z</time>
      </trkpt>
      <trkpt lat="42.38289" lon="8.94038">
        <ele>2222.008</ele>
        <time>2020-03-19T19:22:24Z</time>
      </trkpt>
      <trkpt lat="42.38279" lon="8.94045">
        <ele>2228.891</ele>
        <time>2020-03-19T19:22:44Z</time>
      </trkpt>
      <trkpt lat="42.38278" lon="8.94051">
        <ele>2232.024</ele>
        <time>2020-03-19T19:23:04Z</time>
      </trkpt>
      <trkpt lat="42.38263" lon="8.94057">
        <ele>2242.356</ele>
        <time>2020-03-19T19:23:24Z</time>
      </trkpt>
      <trkpt lat="42.38266" lon="8.94084">
        <ele>2249.744</ele>
        <time>2020-03-19T19:23:44Z</time>
      </trkpt>
      <trkpt lat="42.38246" lon="8.94086">
        <ele>2259.478</ele>
        <time>2020-03-19T19:24:04Z</time>
      </trkpt>
      <trkpt lat="42.38244" lon="8.94107">
        <ele>2264.242</ele>
        <time>2020-03-19T19:24:24Z</time>
      </trkpt>
      <trkpt lat="42.38248" lon="8.94119">
        <ele>2265.595</ele>
        <time>2020-03-19T19:24:44Z</time>
      </trkpt>
      <trkpt lat="42.38244" lon="8.94129">
        <ele>2270.091</ele>
        <time>2020-03-19T19:25:04Z</time>
      </trkpt>
      <trkpt lat="42.38245" lon="8.9414">
        <ele>2272.935</ele>
        <time>2020-03-19T19:25:24Z</time>
      </trkpt>
      <trkpt lat="42.38216" lon="8.94132">
        <ele>2284.986</ele>
        <time>2020-03-19T19:25:44Z</time>
      </trkpt>
      <trkpt lat="42.38206" lon="8.94136">
        <ele>2290.914</ele>
        <time>2020-03-19T19:26:04Z</time>
      </trkpt>
      <trkpt lat="42.38193" lon="8.94131">
        <ele>2297.108</ele>
        <time>2020-03-19T19:26:24Z</time>
      </trkpt>
      <trkpt lat="42.38183" lon="8.94128">
        <ele>2302.437</ele>
        <time>2020-03-19T19:26:44Z</time>
      </trkpt>
      <trkpt lat="42.38169" lon="8.94108">
        <ele>2307.72</ele>
        <time>2020-03-19T19:27:04Z</time>
      </trkpt>
      <trkpt lat="42.38139" lon="8.94086">
        <ele>2316.732</ele>
        <time>2020-03-19T19:27:24Z</time>
      </trkpt>
      <trkpt lat="42.38133" lon="8.94096">
        <ele>2321.87</ele>
        <time>2020-03-19T19:27:44Z</time>
      </trkpt>
      <trkpt lat="42.38105" lon="8.94068">
        <ele>2325.854</ele>
        <time>2020-03-19T19:28:04Z</time>
      </trkpt>
      <trkpt lat="42.38093" lon="8.94068">
        <ele>2327.588</ele>
        <time>2020-03-19T19:28:24Z</time>
      </trkpt>
      <trkpt lat="42.38085" lon="8.94059">
        <ele>2327.331</ele>
        <time>2020-03-19T19:28:44Z</time>
      </trkpt>
      <trkpt lat="42.38082" lon="8.94024">
        <ele>2322.267</ele>
        <time>2020-03-19T19:29:04Z</time>
      </trkpt>
      <trkpt lat="42.38054" lon="8.94001">
        <ele>2329.273</ele>
        <time>2020-03-19T19:29:24Z</time>
      </trkpt>
      <trkpt lat="42.38033" lon="8.93968">
        <ele>2338.285</ele>
        <time>2020-03-19T19:29:44Z</time>
      </trkpt>
      <trkpt lat="42.38021" lon="8.9394">
        <ele>2344.613</ele>
        <time>2020-03-19T19:30:04Z</time>
      </trkpt>
      <trkpt lat="42.38019" lon="8.93912">
        <ele>2340.108</ele>
        <time>2020-03-19T19:30:24Z</time>
      </trkpt>
      <trkpt lat="42.38012" lon="8.93907">
        <ele>2346.261</ele>
        <time>2020-03-19T19:30:44Z</time>
      </trkpt>
      <trkpt lat="42.38" lon="8.93911">
        <ele>2358.064</ele>
        <time>2020-03-19T19:31:04Z</time>
      </trkpt>
      <trkpt lat="42.38006" lon="8.93937">
        <ele>2357.296</ele>
        <time>2020-03-19T19:31:24Z</time>
      </trkpt>
      <trkpt lat="42.37984" lon="8.93926">
        <ele>2373.274</ele>
        <time>2020-03-19T19:31:44Z</time>
      </trkpt>
      <trkpt lat="42.37968" lon="8.93927">
        <ele>2386.458</ele>
        <time>2020-03-19T19:32:04Z</time>
      </trkpt>
      <trkpt lat="42.37954" lon="8.9393">
        <ele>2401.342</ele>
        <time>2020-03-19T19:32:24Z</time>
      </trkpt>
      <trkpt lat="42.37937" lon="8.93916">
        <ele>2412.825</ele>
        <time>2020-03-19T19:32:44Z</time>
      </trkpt>
      <trkpt lat="42.37924" lon="8.93921">
        <ele>2428.981</ele>
        <time>2020-03-19T19:33:04Z</time>
      </trkpt>
      <trkpt lat="42.37893" lon="8.93908">
        <ele>2447.128</ele>
        <time>2020-03-19T19:33:24Z</time>
      </trkpt>
      <trkpt lat="42.37878" lon="8.93914">
        <ele>2465.289</ele>
        <time>2020-03-19T19:33:44Z</time>
      </trkpt>
      <trkpt lat="42.37867" lon="8.93904">
        <ele>2466.717</ele>
        <time>2020-03-19T19:34:04Z</time>
      </trkpt>
      <trkpt lat="42.37856" lon="8.93904">
        <ele>2475.008</ele>
        <time>2020-03-19T19:34:24Z</time>
      </trkpt>
      <trkpt lat="42.37843" lon="8.93882">
        <ele>2466.246</ele>
        <time>2020-03-19T19:34:44Z</time>
      </trkpt>
      <trkpt lat="42.37832" lon="8.9388">
        <ele>2473.979</ele>
        <time>2020-03-19T19:35:04Z</time>
      </trkpt>
      <trkpt lat="42.37822" lon="8.93867">
        <ele>2473.841</ele>
        <time>2020-03-19T19:35:24Z</time>
      </trkpt>
      <trkpt lat="42.37821" lon="8.93854">
        <ele>2466.769</ele>
        <time>2020-03-19T19:35:44Z</time>
      </trkpt>
      <trkpt lat="42.37812" lon="8.93841">
        <ele>2468.693</ele>
        <time>2020-03-19T19:36:04Z</time>
      </trkpt>
      <trkpt lat="42.37802" lon="8.93851">
        <ele>2481.577</ele>
        <time>2020-03-19T19:36:24Z</time>
      </trkpt>
      <trkpt lat="42.37791" lon="8.93827">
        <ele>2483.73</ele>
        <time>2020-03-19T19:36:44Z</time>
      </trkpt>
      <trkpt lat="42.37773" lon="8.93831">
        <ele>2498.016</ele>
        <time>2020-03-19T19:37:04Z</time>
      </trkpt>
      <trkpt lat="42.37765" lon="8.93828">
        <ele>2503.232</ele>
        <time>2020-03-19T19:37:24Z</time>
      </trkpt>
      <trkpt lat="42.37763" lon="8.93854">
        <ele>2509.392</ele>
        <time>2020-03-19T19:37:44Z</time>
      </trkpt>
      <trkpt lat="42.37733" lon="8.93817">
        <ele>2524.511</ele>
        <time>2020-03-19T19:38:04Z</time>
      </trkpt>
      <trkpt lat="42.37716" lon="8.93825">
        <ele>2539.608</ele>
        <time>2020-03-19T19:38:24Z</time>
      </trkpt>
      <trkpt lat="42.37712" lon="8.93836">
        <ele>2546.417</ele>
        <time>2020-03-19T19:38:44Z</time>
      </trkpt>
      <trkpt lat="42.37689" lon="8.93805">
        <ele>2561.45</ele>
        <time>2020-03-19T19:39:04Z</time>
      </trkpt>
      <trkpt lat="42.37683" lon="8.9381">
        <ele>2568.062</ele>
        <time>2020-03-19T19:39:24Z</time>
      </trkpt>
      <trkpt lat="42.37672" lon="8.93794">
        <ele>2576.35</ele>
        <time>2020-03-19T19:39:44Z</time>
      </trkpt>
      <trkpt lat="42.37664" lon="8.93798">
        <ele>2583.084</ele>
        <time>2020-03-19T19:40:04Z</time>
      </trkpt>
      <trkpt lat="42.37651" lon="8.93784">
        <ele>2586.728</ele>
        <time>2020-03-19T19:40:24Z</time>
      </trkpt>
      <trkpt lat="42.3764" lon="8.93752">
        <ele>2593.661</ele>
        <time>2020-03-19T19:40:44Z</time>
      </trkpt>
      <trkpt lat="42.37617" lon="8.93732">
        <ele>2591.067</ele>
        <time>2020-03-19T19:41:04Z</time>
      </trkpt>
      <trkpt lat="42.37613" lon="8.93708">
        <ele>2589.518</ele>
        <time>2020-03-19T19:41:24Z</time>
      </trkpt>
      <trkpt lat="42.37604" lon="8.93704">
        <ele>2587.198</ele>
        <time>2020-03-19T19:41:44Z</time>
      </trkpt>
      <trkpt lat="42.376" lon="8.93685">
        <ele>2582.617</ele>
        <time>2020-03-19T19:42:04Z</time>
      </trkpt>
      <trkpt lat="42.37592" lon="8.93677">
        <ele>2579.708</ele>
        <time>2020-03-19T19:42:24Z</time>
      </trkpt>
      <trkpt lat="42.37592" lon="8.93653">
        <ele>2574.225</ele>
        <time>2020-03-19T19:42:44Z</time>
      </trkpt>
      <trkpt lat="42.37581" lon="8.93634">
        <ele>2568.488</ele>
        <time>2020-03-19T19:43:04Z</time>
      </trkpt>
      <trkpt lat="42.37578" lon="8.93618">
        <ele>2563.98</ele>
        <time>2020-03-19T19:43:24Z</time>
      </trkpt>
      <trkpt lat="42.37561" lon="8.9359">
        <ele>2556.188</ele>
        <time>2020-03-19T19:43:44Z</time>
      </trkpt>
      <trkpt lat="42.37559" lon="8.93565">
        <ele>2549.422</ele>
        <time>2020-03-19T19:44:04Z</time>
      </trkpt>
      <trkpt lat="42.37549" lon="8.93524">
        <ele>2538.496</ele>
        <time>2020-03-19T19:44:24Z</time>
      </trkpt>
      <trkpt lat="42.37538" lon="8.93511">
        <ele>2535.989</ele>
        <time>2020-03-19T19:44:44Z</time>
      </trkpt>
      <trkpt lat="42.37536" lon="8.93496">
        <ele>2534.355</ele>
        <time>2020-03-19T19:45:04Z</time>
      </trkpt>
      <trkpt lat="42.37529" lon="8.93468">
        <ele>2526.799</ele>
        <time>2020-03-19T19:45:24Z</time>
      </trkpt>
      <trkpt lat="42.37528" lon="8.93443">
        <ele>2520.907</ele>
        <time>2020-03-19T19:45:44Z</time>
      </trkpt>
      <trkpt lat="42.37535" lon="8.93422">
        <ele>2518.127</ele>
        <time>2020-03-19T19:46:04Z</time>
      </trkpt>
      <trkpt lat="42.37528" lon="8.93408">
        <ele>2517.808</ele>
        <time>2020-03-19T19:46:24Z</time>
      </trkpt>
      <trkpt lat="42.37512" lon="8.93401">
        <ele>2513.933</ele>
        <time>2020-03-19T19:46:44Z</time>
      </trkpt>
      <trkpt lat="42.37491" lon="8.93405">
        <ele>2509.346</ele>
        <time>2020-03-19T19:47:04Z</time>
      </trkpt>
      <trkpt lat="42.37479" lon="8.93412">
        <ele>2505.288</ele>
        <time>2020-03-19T19:47:24Z</time>
      </trkpt>
      <trkpt lat="42.37456" lon="8.93358">
        <ele>2489.846</ele>
        <time>2020-03-19T19:47:44Z</time>
      </trkpt>
      <trkpt lat="42.37431" lon="8.93335">
        <ele>2477.98</ele>
        <time>2020-03-19T19:48:04Z</time>
      </trkpt>
      <trkpt lat="42.37419" lon="8.93333">
        <ele>2477.794</ele>
        <time>2020-03-19T19:48:24Z</time>
      </trkpt>
      <trkpt lat="42.3741" lon="8.9332">
        <ele>2474.597</ele>
        <time>2020-03-19T19:48:44Z</time>
      </trkpt>
      <trkpt lat="42.37381" lon="8.93281">
        <ele>2467.633</ele>
        <time>2020-03-19T19:49:04Z</time>
      </trkpt>
      <trkpt lat="42.37358" lon="8.93243">
        <ele>2461.939</ele>
        <time>2020-03-19T19:49:24Z</time>
      </trkpt>
      <trkpt lat="42.37327" lon="8.93197">
        <ele>2460.201</ele>
        <time>2020-03-19T19:49:44Z</time>
      </trkpt>
      <trkpt lat="42.37293" lon="8.93163">
        <ele>2452.721</ele>
        <time>2020-03-19T19:50:04Z</time>
      </trkpt>
      <trkpt lat="42.37277" lon="8.93131">
        <ele>2452.208</ele>
        <time>2020-03-19T19:50:24Z</time>
      </trkpt>
      <trkpt lat="42.37268" lon="8.93084">
        <ele>2459.627</ele>
        <time>2020-03-19T19:50:44Z</time>
      </trkpt>
      <trkpt lat="42.37242" lon="8.93027">
        <ele>2472.08</ele>
        <time>2020-03-19T19:51:04Z</time>
      </trkpt>
      <trkpt lat="42.37197" lon="8.93008">
        <ele>2461.072</ele>
        <time>2020-03-19T19:51:24Z</time>
      </trkpt>
      <trkpt lat="42.3716" lon="8.92998">
        <ele>2447.26</ele>
        <time>2020-03-19T19:51:44Z</time>
      </trkpt>
      <trkpt lat="42.37146" lon="8.92984">
        <ele>2445.514</ele>
        <time>2020-03-19T19:52:04Z</time>
      </trkpt>
      <trkpt lat="42.37146" lon="8.92964">
        <ele>2445.518</ele>
        <time>2020-03-19T19:52:24Z</time>
      </trkpt>
      <trkpt lat="42.37134" lon="8.92947">
        <ele>2440.791</ele>
        <time>2020-03-19T19:52:44Z</time>
      </trkpt>
      <trkpt lat="42.37137" lon="8.92927">
        <ele>2435.987</ele>
        <time>2020-03-19T19:53:04Z</time>
      </trkpt>
      <trkpt lat="42.37155" lon="8.92909">
        <ele>2429.329</ele>
        <time>2020-03-19T19:53:24Z</time>
      </trkpt>
      <trkpt lat="42.37168" lon="8.92877">
        <ele>2413.8</ele>
        <time>2020-03-19T19:53:44Z</time>
      </trkpt>
      <trkpt lat="42.37188" lon="8.92862">
        <ele>2407.32</ele>
        <time>2020-03-19T19:54:04Z</time>
      </trkpt>
      <trkpt lat="42.37193" lon="8.92847">
        <ele>2400.308</ele>
        <time>2020-03-19T19:54:24Z</time>
      </trkpt>
      <trkpt lat="42.37191" lon="8.92821">
        <ele>2387.656</ele>
        <time>2020-03-19T19:54:44Z</time>
      </trkpt>
      <trkpt lat="42.37193" lon="8.92811">
        <ele>2383.169</ele>
        <time>2020-03-19T19:55:04Z</time>
      </trkpt>
      <trkpt lat="42.37194" lon="8.92794">
        <ele>2374.681</ele>
        <time>2020-03-19T19:55:24Z</time>
      </trkpt>
      <trkpt lat="42.37206" lon="8.92783">
        <ele>2372.999</ele>
        <time>2020-03-19T19:55:44Z</time>
      </trkpt>
      <trkpt lat="42.37205" lon="8.92773">
        <ele>2367.743</ele>
        <time>2020-03-19T19:56:04Z</time>
      </trkpt>
      <trkpt lat="42.3721" lon="8.92754">
        <ele>2360.557</ele>
        <time>2020-03-19T19:56:24Z</time>
      </trkpt>
      <trkpt lat="42.37202" lon="8.92746">
        <ele>2353.33</ele>
        <time>2020-03-19T19:56:44Z</time>
      </trkpt>
      <trkpt lat="42.37202" lon="8.92733">
        <ele>2349.516</ele>
        <time>2020-03-19T19:57:04Z</time>
      </trkpt>
      <trkpt lat="42.37183" lon="8.92654">
        <ele>2323.448</ele>
        <time>2020-03-19T19:57:24Z</time>
      </trkpt>
      <trkpt lat="42.37165" lon="8.92667">
        <ele>2320.761</ele>
        <time>2020-03-19T19:57:44Z</time>
      </trkpt>
      <trkpt lat="42.37151" lon="8.92647">
        <ele>2312.617</ele>
        <time>2020-03-19T19:58:04Z</time>
      </trkpt>
      <trkpt lat="42.37121" lon="8.92641">
        <ele>2298.408</ele>
        <time>2020-03-19T19:58:24Z</time>
      </trkpt>
      <trkpt lat="42.37114" lon="8.92625">
        <ele>2289.068</ele>
        <time>2020-03-19T19:58:44Z</time>
      </trkpt>
      <trkpt lat="42.37105" lon="8.92625">
        <ele>2285.181</ele>
        <time>2020-03-19T19:59:04Z</time>
      </trkpt>
      <trkpt lat="42.37098" lon="8.92611">
        <ele>2276.683</ele>
        <time>2020-03-19T19:59:24Z</time>
      </trkpt>
      <trkpt lat="42.37072" lon="8.9261">
        <ele>2267.161</ele>
        <time>2020-03-19T19:59:44Z</time>
      </trkpt>
      <trkpt lat="42.37063" lon="8.92613">
        <ele>2264.775</ele>
        <time>2020-03-19T20:00:04Z</time>
      </trkpt>
      <trkpt lat="42.37042" lon="8.92597">
        <ele>2256.049</ele>
        <time>2020-03-19T20:00:24Z</time>
      </trkpt>
      <trkpt lat="42.37034" lon="8.92586">
        <ele>2251.362</ele>
        <time>2020-03-19T20:00:44Z</time>
      </trkpt>
      <trkpt lat="42.37017" lon="8.92583">
        <ele>2243.768</ele>
        <time>2020-03-19T20:01:04Z</time>
      </trkpt>
      <trkpt lat="42.37007" lon="8.92588">
        <ele>2240.289</ele>
        <time>2020-03-19T20:01:24Z</time>
      </trkpt>
      <trkpt lat="42.37" lon="8.92578">
        <ele>2232.906</ele>
        <time>2020-03-19T20:01:44Z</time>
      </trkpt>
      <trkpt lat="42.36998" lon="8.92557">
        <ele>2222.626</ele>
        <time>2020-03-19T20:02:04Z</time>
      </trkpt>
      <trkpt lat="42.37004" lon="8.92541">
        <ele>2220.908</ele>
        <time>2020-03-19T20:02:24Z</time>
      </trkpt>
      <trkpt lat="42.37002" lon="8.92525">
        <ele>2214.712</ele>
        <time>2020-03-19T20:02:44Z</time>
      </trkpt>
      <trkpt lat="42.36989" lon="8.92511">
        <ele>2206.185</ele>
        <time>2020-03-19T20:03:04Z</time>
      </trkpt>
      <trkpt lat="42.36983" lon="8.92493">
        <ele>2199.767</ele>
        <time>2020-03-19T20:03:24Z</time>
      </trkpt>
      <trkpt lat="42.36968" lon="8.92484">
        <ele>2189.935</ele>
        <time>2020-03-19T20:03:44Z</time>
      </trkpt>
      <trkpt lat="42.36958" lon="8.92452">
        <ele>2175.499</ele>
        <time>2020-03-19T20:04:04Z</time>
      </trkpt>
      <trkpt lat="42.36956" lon="8.92421">
        <ele>2162.343</ele>
        <time>2020-03-19T20:04:24Z</time>
      </trkpt>
      <trkpt lat="42.36947" lon="8.92399">
        <ele>2151.636</ele>
        <time>2020-03-19T20:04:44Z</time>
      </trkpt>
      <trkpt lat="42.36949" lon="8.92374">
        <ele>2151.462</ele>
        <time>2020-03-19T20:05:04Z</time>
      </trkpt>
      <trkpt lat="42.36934" lon="8.9236">
        <ele>2143.475</ele>
        <time>2020-03-19T20:05:24Z</time>
      </trkpt>
      <trkpt lat="42.36915" lon="8.9238">
        <ele>2132.228</ele>
        <time>2020-03-19T20:05:44Z</time>
      </trkpt>
      <trkpt lat="42.36895" lon="8.92369">
        <ele>2119.32</ele>
        <time>2020-03-19T20:06:04Z</time>
      </trkpt>
      <trkpt lat="42.36901" lon="8.92358">
        <ele>2122.808</ele>
        <time>2020-03-19T20:06:24Z</time>
      </trkpt>
      <trkpt lat="42.36896" lon="8.92341">
        <ele>2117.891</ele>
        <time>2020-03-19T20:06:44Z</time>
      </trkpt>
      <trkpt lat="42.36898" lon="8.92325">
        <ele>2116.964</ele>
        <time>2020-03-19T20:07:04Z</time>
      </trkpt>
      <trkpt lat="42.36882" lon="8.9231">
        <ele>2104.546</ele>
        <time>2020-03-19T20:07:24Z</time>
      </trkpt>
      <trkpt lat="42.36882" lon="8.92304">
        <ele>2103.264</ele>
        <time>2020-03-19T20:07:44Z</time>
      </trkpt>
      <trkpt lat="42.36859" lon="8.92255">
        <ele>2075.828</ele>
        <time>2020-03-19T20:08:04Z</time>
      </trkpt>
      <trkpt lat="42.36851" lon="8.9225">
        <ele>2071.282</ele>
        <time>2020-03-19T20:08:24Z</time>
      </trkpt>
      <trkpt lat="42.36849" lon="8.92238">
        <ele>2067.575</ele>
        <time>2020-03-19T20:08:44Z</time>
      </trkpt>
      <trkpt lat="42.36829" lon="8.92215">
        <ele>2054.561</ele>
        <time>2020-03-19T20:09:04Z</time>
      </trkpt>
      <trkpt lat="42.36829" lon="8.92201">
        <ele>2050.815</ele>
        <time>2020-03-19T20:09:24Z</time>
      </trkpt>
      <trkpt lat="42.3682" lon="8.92192">
        <ele>2044.965</ele>
        <time>2020-03-19T20:09:44Z</time>
      </trkpt>
      <trkpt lat="42.36832" lon="8.92157">
        <ele>2037.211</ele>
        <time>2020-03-19T20:10:04Z</time>
      </trkpt>
      <trkpt lat="42.36822" lon="8.92129">
        <ele>2020.808</ele>
        <time>2020-03-19T20:10:24Z</time>
      </trkpt>
      <trkpt lat="42.36808" lon="8.92134">
        <ele>2018.395</ele>
        <time>2020-03-19T20:10:44Z</time>
      </trkpt>
      <trkpt lat="42.36808" lon="8.92107">
        <ele>2006.388</ele>
        <time>2020-03-19T20:11:04Z</time>
      </trkpt>
      <trkpt lat="42.36787" lon="8.92111">
        <ele>2005.61</ele>
        <time>2020-03-19T20:11:24Z</time>
      </trkpt>
      <trkpt lat="42.36788" lon="8.92095">
        <ele>2000.288</ele>
        <time>2020-03-19T20:11:44Z</time>
      </trkpt>
      <trkpt lat="42.36796" lon="8.92088">
        <ele>1998.482</ele>
        <time>2020-03-19T20:12:04Z</time>
      </trkpt>
      <trkpt lat="42.36796" lon="8.92068">
        <ele>1993.136</ele>
        <time>2020-03-19T20:12:24Z</time>
      </trkpt>
      <trkpt lat="42.36791" lon="8.92057">
        <ele>1988.529</ele>
        <time>2020-03-19T20:12:44Z</time>
      </trkpt>
      <trkpt lat="42.36796" lon="8.92029">
        <ele>1983.075</ele>
        <time>2020-03-19T20:13:04Z</time>
      </trkpt>
      <trkpt lat="42.36789" lon="8.92006">
        <ele>1973.028</ele>
        <time>2020-03-19T20:13:24Z</time>
      </trkpt>
      <trkpt lat="42.3677" lon="8.91975">
        <ele>1958.389</ele>
        <time>2020-03-19T20:13:44Z</time>
      </trkpt>
      <trkpt lat="42.36766" lon="8.91953">
        <ele>1956.017</ele>
        <time>2020-03-19T20:14:04Z</time>
      </trkpt>
      <trkpt lat="42.36755" lon="8.91916">
        <ele>1950.208</ele>
        <time>2020-03-19T20:14:24Z</time>
      </trkpt>
      <trkpt lat="42.36743" lon="8.91914">
        <ele>1945.346</ele>
        <time>2020-03-19T20:14:44Z</time>
      </trkpt>
      <trkpt lat="42.36718" lon="8.91914">
        <ele>1936.719</ele>
        <time>2020-03-19T20:15:04Z</time>
      </trkpt>
      <trkpt lat="42.36719" lon="8.91894">
        <ele>1934.471</ele>
        <time>2020-03-19T20:15:24Z</time>
      </trkpt>
      <trkpt lat="42.36716" lon="8.91879">
        <ele>1931.979</ele>
        <time>2020-03-19T20:15:44Z</time>
      </trkpt>
      <trkpt lat="42.36719" lon="8.91863">
        <ele>1931.643</ele>
        <time>2020-03-19T20:16:04Z</time>
      </trkpt>
      <trkpt lat="42.3671" lon="8.91853">
        <ele>1927.747</ele>
        <time>2020-03-19T20:16:24Z</time>
      </trkpt>
      <trkpt lat="42.36701" lon="8.91858">
        <ele>1923.96</ele>
        <time>2020-03-19T20:16:44Z</time>
      </trkpt>
      <trkpt lat="42.36701" lon="8.91841">
        <ele>1923.436</ele>
        <time>2020-03-19T20:17:04Z</time>
      </trkpt>
      <trkpt lat="42.36693" lon="8.9184">
        <ele>1919.437</ele>
        <time>2020-03-19T20:17:24Z</time>
      </trkpt>
      <trkpt lat="42.36681" lon="8.91847">
        <ele>1912.849</ele>
        <time>2020-03-19T20:17:44Z</time>
      </trkpt>
      <trkpt lat="42.36665" lon="8.91849">
        <ele>1904.513</ele>
        <time>2020-03-19T20:18:04Z</time>
      </trkpt>
      <trkpt lat="42.3666" lon="8.9182">
        <ele>1901.608</ele>
        <time>2020-03-19T20:18:24Z</time>
      </trkpt>
      <trkpt lat="42.36649" lon="8.91816">
        <ele>1896.777</ele>
        <time>2020-03-19T20:18:44Z</time>
      </trkpt>
      <trkpt lat="42.36636" lon="8.91796">
        <ele>1890.37</ele>
        <time>2020-03-19T20:19:04Z</time>
      </trkpt>
      <trkpt lat="42.36625" lon="8.91789">
        <ele>1883.972</ele>
        <time>2020-03-19T20:19:24Z</time>
      </trkpt>
      <trkpt lat="42.36604" lon="8.91767">
        <ele>1869.33</ele>
        <time>2020-03-19T20:19:44Z</time>
      </trkpt>
      <trkpt lat="42.36592" lon="8.91727">
        <ele>1859.074</ele>
        <time>2020-03-19T20:20:04Z</time>
      </trkpt>
      <trkpt lat="42.36582" lon="8.91717">
        <ele>1852.838</ele>
        <time>2020-03-19T20:20:24Z</time>
      </trkpt>
      <trkpt lat="42.3658" lon="8.917">
        <ele>1853.371</ele>
        <time>2020-03-19T20:20:44Z</time>
      </trkpt>
      <trkpt lat="42.36571" lon="8.91694">
        <ele>1848.697</ele>
        <time>2020-03-19T20:21:04Z</time>
      </trkpt>
      <trkpt lat="42.3656" lon="8.9169">
        <ele>1841.825</ele>
        <time>2020-03-19T20:21:24Z</time>
      </trkpt>
      <trkpt lat="42.36556" lon="8.91673">
        <ele>1839.426</ele>
        <time>2020-03-19T20:21:44Z</time>
      </trkpt>
      <trkpt lat="42.36541" lon="8.91661">
        <ele>1830.108</ele>
        <time>2020-03-19T20:22:04Z</time>
      </trkpt>
      <trkpt lat="42.36535" lon="8.91631">
        <ele>1825.708</ele>
        <time>2020-03-19T20:22:24Z</time>
      </trkpt>
      <trkpt lat="42.36512" lon="8.91615">
        <ele>1811.166</ele>
        <time>2020-03-19T20:22:44Z</time>
      </trkpt>
      <trkpt lat="42.36509" lon="8.91582">
        <ele>1804.149</ele>
        <time>2020-03-19T20:23:04Z</time>
      </trkpt>
      <trkpt lat="42.36494" lon="8.91552">
        <ele>1793.221</ele>
        <time>2020-03-19T20:23:24Z</time>
      </trkpt>
      <trkpt lat="42.36486" lon="8.91523">
        <ele>1785.919</ele>
        <time>2020-03-19T20:23:44Z</time>
      </trkpt>
      <trkpt lat="42.36496" lon="8.91509">
        <ele>1789.533</ele>
        <time>2020-03-19T20:24:04Z</time>
      </trkpt>
      <trkpt lat="42.36484" lon="8.915">
        <ele>1782.147</ele>
        <time>2020-03-19T20:24:24Z</time>
      </trkpt>
      <trkpt lat="42.36479" lon="8.91477">
        <ele>1775.17</ele>
        <time>2020-03-19T20:24:44Z</time>
      </trkpt>
      <trkpt lat="42.3647" lon="8.91475">
        <ele>1770.596</ele>
        <time>2020-03-19T20:25:04Z</time>
      </trkpt>
      <trkpt lat="42.36443" lon="8.91448">
        <ele>1759.811</ele>
        <time>2020-03-19T20:25:24Z</time>
      </trkpt>
      <trkpt lat="42.36428" lon="8.9145">
        <ele>1754.621</ele>
        <time>2020-03-19T20:25:44Z</time>
      </trkpt>
      <trkpt lat="42.36407" lon="8.91437">
        <ele>1745.303</ele>
        <time>2020-03-19T20:26:04Z</time>
      </trkpt>
      <trkpt lat="42.36398" lon="8.91424">
        <ele>1740.608</ele>
        <time>2020-03-19T20:26:24Z</time>
      </trkpt>
      <trkpt lat="42.36376" lon="8.91412">
        <ele>1732.775</ele>
        <time>2020-03-19T20:26:44Z</time>
      </trkpt>
      <trkpt lat="42.36363" lon="8.91389">
        <ele>1727.568</ele>
        <time>2020-03-19T20:27:04Z</time>
      </trkpt>
      <trkpt lat="42.36342" lon="8.91393">
        <ele>1722.79</ele>
        <time>2020-03-19T20:27:24Z</time>
      </trkpt>
      <trkpt lat="42.36335" lon="8.91382">
        <ele>1720.368</ele>
        <time>2020-03-19T20:27:44Z</time>
      </trkpt>
      <trkpt lat="42.36329" lon="8.91359">
        <ele>1719.112</ele>
        <time>2020-03-19T20:28:04Z</time>
      </trkpt>
      <trkpt lat="42.36313" lon="8.91351">
        <ele>1716.236</ele>
        <time>2020-03-19T20:28:24Z</time>
      </trkpt>
      <trkpt lat="42.36297" lon="8.91323">
        <ele>1714.039</ele>
        <time>2020-03-19T20:28:44Z</time>
      </trkpt>
      <trkpt lat="42.36294" lon="8.91312">
        <ele>1712.895</ele>
        <time>2020-03-19T20:29:04Z</time>
      </trkpt>
      <trkpt lat="42.36275" lon="8.91282">
        <ele>1707.758</ele>
        <time>2020-03-19T20:29:24Z</time>
      </trkpt>
      <trkpt lat="42.36272" lon="8.9126">
        <ele>1705.752</ele>
        <time>2020-03-19T20:29:44Z</time>
      </trkpt>
      <trkpt lat="42.36266" lon="8.91254">
        <ele>1702.117</ele>
        <time>2020-03-19T20:30:04Z</time>
      </trkpt>
      <trkpt lat="42.36264" lon="8.91243">
        <ele>1701.408</ele>
        <time>2020-03-19T20:30:24Z</time>
      </trkpt>
      <trkpt lat="42.36243" lon="8.91227">
        <ele>1689.859</ele>
        <time>2020-03-19T20:30:44Z</time>
      </trkpt>
      <trkpt lat="42.3624" lon="8.91208">
        <ele>1688.452</ele>
        <time>2020-03-19T20:31:04Z</time>
      </trkpt>
      <trkpt lat="42.36225" lon="8.91191">
        <ele>1681.224</ele>
        <time>2020-03-19T20:31:24Z</time>
      </trkpt>
      <trkpt lat="42.36222" lon="8.91176">
        <ele>1681.272</ele>
        <time>2020-03-19T20:31:44Z</time>
      </trkpt>
      <trkpt lat="42.36224" lon="8.91156">
        <ele>1684.446</ele>
        <time>2020-03-19T20:32:04Z</time>
      </trkpt>
      <trkpt lat="42.3622" lon="8.91085">
        <ele>1676.76</ele>
        <time>2020-03-19T20:32:24Z</time>
      </trkpt>
      <trkpt lat="42.36222" lon="8.91063">
        <ele>1676.943</ele>
        <time>2020-03-19T20:32:44Z</time>
      </trkpt>
      <trkpt lat="42.36209" lon="8.91022">
        <ele>1671.719</ele>
        <time>2020-03-19T20:33:04Z</time>
      </trkpt>
      <trkpt lat="42.36208" lon="8.90997">
        <ele>1671.682</ele>
        <time>2020-03-19T20:33:24Z</time>
      </trkpt>
      <trkpt lat="42.36198" lon="8.91">
        <ele>1666.843</ele>
        <time>2020-03-19T20:33:44Z</time>
      </trkpt>
      <trkpt lat="42.36183" lon="8.90997">
        <ele>1660.117</ele>
        <time>2020-03-19T20:34:04Z</time>
      </trkpt>
      <trkpt lat="42.36172" lon="8.91004">
        <ele>1655.008</ele>
        <time>2020-03-19T20:34:24Z</time>
      </trkpt>
      <trkpt lat="42.36164" lon="8.90997">
        <ele>1651.982</ele>
        <time>2020-03-19T20:34:44Z</time>
      </trkpt>
      <trkpt lat="42.36154" lon="8.90999">
        <ele>1646.175</ele>
        <time>2020-03-19T20:35:04Z</time>
      </trkpt>
      <trkpt lat="42.36143" lon="8.90989">
        <ele>1642.047</ele>
        <time>2020-03-19T20:35:24Z</time>
      </trkpt>
      <trkpt lat="42.36128" lon="8.90997">
        <ele>1634.645</ele>
        <time>2020-03-19T20:35:44Z</time>
      </trkpt>
      <trkpt lat="42.36111" lon="8.90991">
        <ele>1628.369</ele>
        <time>2020-03-19T20:36:04Z</time>
      </trkpt>
    </trkseg>
  </trk>
</gpx>